Time;durP1;ratioP1;P1;durP2;ratioP2;P2;SDS_P1;SDS_P2;PMS_P1;PMS_P2;Temp;Humidity;BMP_temperature;BMP_pressure;BME280_temperature;BME280_humidity;BME280_pressure;Samples;Min_cycle;Max_cycle;Signal;HPM_P1;HPM_P2
2021/08/10 00:02:43;;;;;;;6.18;3.38;;;;;;;16.16;73.91;100920.16;263655;1096;115130;-68
2021/08/10 00:07:45;;;;;;;4.73;2.90;;;;;;;16.00;74.15;100921.09;263643;1095;114679;-68
2021/08/10 00:12:47;;;;;;;3.75;3.18;;;;;;;16.11;72.89;100927.84;263671;1095;114439;-70
2021/08/10 00:17:50;;;;;;;4.45;3.10;;;;;;;16.10;73.71;100920.85;263623;1094;114419;-68
2021/08/10 00:22:52;;;;;;;6.15;3.75;;;;;;;15.97;74.81;100917.95;263681;1096;114892;-69
2021/08/10 00:27:54;;;;;;;4.95;3.40;;;;;;;15.84;75.11;100927.34;263607;1096;114341;-68
2021/08/10 00:32:57;;;;;;;5.00;3.40;;;;;;;15.98;75.24;100927.59;263668;1095;114775;-68
2021/08/10 00:37:59;;;;;;;4.58;2.75;;;;;;;15.98;74.25;100939.09;263588;1096;115199;-69
2021/08/10 00:43:01;;;;;;;5.65;3.08;;;;;;;15.98;74.55;100935.59;263701;1096;114786;-68
2021/08/10 00:48:03;;;;;;;4.53;2.93;;;;;;;16.03;73.94;100930.55;263615;1095;114272;-68
2021/08/10 00:53:05;;;;;;;3.08;2.65;;;;;;;16.05;73.21;100936.56;263724;1095;114711;-67
2021/08/10 00:58:08;;;;;;;6.40;3.43;;;;;;;15.99;72.12;100942.58;263652;1095;114766;-68
2021/08/10 01:03:12;;;;;;;3.85;2.93;;;;;;;16.05;72.31;100933.89;263629;1095;114759;-68
2021/08/10 01:08:18;;;;;;;2.35;2.15;;;;;;;16.20;64.75;100932.14;263604;1096;114612;-68
2021/08/10 01:13:49;;;;;;;3.43;2.28;;;;;;;16.43;62.21;100925.98;263636;1096;114800;-68
2021/08/10 01:19:26;;;;;;;2.18;1.98;;;;;;;16.47;60.91;100916.62;263406;1096;114607;-68
2021/08/10 01:24:37;;;;;;;1.83;1.60;;;;;;;16.65;59.93;100909.11;263615;1096;114413;-68
2021/08/10 01:30:06;;;;;;;2.28;2.00;;;;;;;16.76;61.31;100922.05;263613;1095;114534;-68
2021/08/10 01:35:10;;;;;;;1.88;1.63;;;;;;;16.54;60.74;100918.39;263392;1095;114341;-68
2021/08/10 01:40:13;;;;;;;2.07;1.70;;;;;;;16.58;60.23;100913.53;263616;1095;114867;-68
2021/08/10 01:45:17;;;;;;;2.88;1.45;;;;;;;16.54;60.19;100912.20;263620;1095;114936;-68
2021/08/10 01:50:20;;;;;;;1.90;1.48;;;;;;;16.63;58.67;100911.97;263666;1096;114547;-68
2021/08/10 01:55:22;;;;;;;2.78;1.58;;;;;;;16.62;58.63;100909.48;263626;1095;114730;-68
2021/08/10 02:00:26;;;;;;;2.03;1.40;;;;;;;16.60;59.17;100908.83;263586;1095;114684;-68
2021/08/10 02:05:29;;;;;;;2.40;1.23;;;;;;;16.49;59.90;100910.07;263668;1096;114532;-68
2021/08/10 02:10:31;;;;;;;1.65;1.25;;;;;;;16.53;60.20;100918.55;263627;1095;114389;-68
2021/08/10 02:15:36;;;;;;;2.53;1.90;;;;;;;16.48;59.20;100899.59;263637;1095;114262;-68
2021/08/10 02:20:39;;;;;;;;;;;;;;;16.61;59.13;100902.47;263606;1096;114509;-69
2021/08/10 02:25:44;;;;;;;4.03;2.28;;;;;;;16.28;64.68;100910.73;263748;1095;101026;-69
2021/08/10 02:30:49;;;;;;;1.95;1.60;;;;;;;16.46;59.76;100904.27;263654;1095;114825;-68
2021/08/10 02:35:55;;;;;;;2.23;1.63;;;;;;;16.51;59.45;100897.39;263666;1095;114738;-68
2021/08/10 02:40:58;;;;;;;2.53;1.80;;;;;;;16.50;62.51;100885.07;263313;1096;114756;-68
2021/08/10 02:46:00;;;;;;;4.68;1.68;;;;;;;16.09;63.50;100893.36;263620;1095;114798;-69
2021/08/10 02:51:03;;;;;;;4.83;2.53;;;;;;;15.78;68.58;100906.70;263595;1095;114644;-69
2021/08/10 02:56:14;;;;;;;3.20;2.33;;;;;;;15.73;66.21;100901.08;263621;1095;114615;-69
2021/08/10 03:01:21;;;;;;;3.00;1.50;;;;;;;16.17;60.60;100895.14;263645;1096;114649;-67
2021/08/10 03:06:23;;;;;;;3.10;1.63;;;;;;;16.38;59.47;100892.67;263656;1096;114751;-69
2021/08/10 03:11:27;;;;;;;3.60;1.30;;;;;;;16.48;59.11;100891.59;263609;1096;114715;-68
2021/08/10 03:16:31;;;;;;;3.30;2.00;;;;;;;16.33;61.01;100888.86;263627;1096;114816;-68
2021/08/10 03:21:35;;;;;;;2.25;1.80;;;;;;;16.18;62.76;100902.95;263620;1095;114526;-69
2021/08/10 03:26:40;;;;;;;2.38;1.65;;;;;;;16.15;62.45;100905.17;263644;1095;114830;-68
2021/08/10 03:31:43;;;;;;;3.00;1.98;;;;;;;16.01;63.46;100900.59;263620;1095;114850;-68
2021/08/10 03:36:48;;;;;;;3.83;1.63;;;;;;;16.09;62.11;100897.87;263634;1096;114662;-67
2021/08/10 03:41:51;;;;;;;2.50;2.30;;;;;;;16.02;62.22;100895.07;263593;1096;114456;-68
2021/08/10 03:46:54;;;;;;;2.13;1.95;;;;;;;16.07;62.02;100900.73;263640;1096;114745;-67
2021/08/10 03:51:56;;;;;;;2.75;1.75;;;;;;;16.02;62.92;100891.58;263201;1095;114732;-68
2021/08/10 03:56:59;;;;;;;2.65;2.10;;;;;;;16.03;65.35;100894.09;263643;1095;114529;-67
2021/08/10 04:02:03;;;;;;;3.00;2.18;;;;;;;15.91;67.27;100880.33;263328;1095;114629;-67
2021/08/10 04:07:07;;;;;;;6.53;3.00;;;;;;;15.89;68.12;100876.99;263059;1095;114587;-69
2021/08/10 04:12:11;;;;;;;4.65;2.95;;;;;;;16.00;66.65;100882.94;263303;1095;114343;-68
2021/08/10 04:17:15;;;;;;;4.03;2.95;;;;;;;16.04;68.54;100879.73;263093;1095;114660;-69
2021/08/10 04:22:17;;;;;;;3.60;2.78;;;;;;;16.14;66.38;100880.31;263639;1095;114838;-70
2021/08/10 04:27:20;;;;;;;6.05;2.90;;;;;;;16.24;66.29;100872.09;263049;1095;114784;-68
2021/08/10 04:32:22;;;;;;;5.45;3.05;;;;;;;16.19;68.07;100879.81;263030;1096;114922;-68
2021/08/10 04:37:24;;;;;;;2.68;2.48;;;;;;;16.18;67.96;100886.13;263545;1096;114509;-69
2021/08/10 04:42:27;;;;;;;4.95;2.98;;;;;;;16.19;68.31;100887.81;263062;1096;114646;-69
2021/08/10 04:47:29;;;;;;;6.50;2.98;;;;;;;16.17;67.97;100893.30;263662;1095;114546;-68
2021/08/10 04:52:31;;;;;;;3.30;3.00;;;;;;;16.26;67.48;100880.73;263452;1096;114280;-70
2021/08/10 04:57:34;;;;;;;6.13;3.38;;;;;;;16.38;67.79;100892.67;263613;1096;114395;-69
2021/08/10 05:02:37;;;;;;;3.40;3.10;;;;;;;16.51;68.41;100891.23;263574;1096;114313;-65
2021/08/10 05:07:39;;;;;;;3.87;2.87;;;;;;;16.56;68.69;100889.67;263650;1095;114624;-68
2021/08/10 05:12:41;;;;;;;6.10;3.18;;;;;;;16.62;68.00;100896.14;263636;1096;114448;-68
2021/08/10 05:17:44;;;;;;;4.38;2.93;;;;;;;16.63;67.90;100900.47;263098;1096;114400;-70
2021/08/10 05:22:46;;;;;;;3.70;3.40;;;;;;;16.76;67.46;100895.36;263558;1096;114352;-69
2021/08/10 05:27:48;;;;;;;3.20;2.85;;;;;;;16.81;67.68;100893.00;263681;1095;114323;-69
2021/08/10 05:32:50;;;;;;;3.38;3.05;;;;;;;16.90;67.57;100897.23;263604;1095;114350;-69
2021/08/10 05:37:53;;;;;;;4.25;3.33;;;;;;;17.10;67.65;100897.53;263083;1096;114608;-70
2021/08/10 05:42:55;;;;;;;5.00;3.38;;;;;;;17.29;67.21;100885.47;263617;1095;114391;-68
2021/08/10 05:47:57;;;;;;;3.08;2.80;;;;;;;17.46;67.51;100890.62;263621;1096;114422;-69
2021/08/10 05:52:59;;;;;;;6.33;3.05;;;;;;;17.56;67.70;100885.83;263633;1095;114619;-72
2021/08/10 05:58:01;;;;;;;4.43;3.13;;;;;;;17.60;67.67;100881.77;263648;1096;114434;-70
2021/08/10 06:03:03;;;;;;;3.25;2.85;;;;;;;17.69;68.03;100880.63;263160;1095;114851;-69
2021/08/10 06:08:06;;;;;;;4.90;3.80;;;;;;;17.73;68.54;100889.93;263662;1096;114590;-70
2021/08/10 06:13:08;;;;;;;3.38;3.08;;;;;;;17.90;66.52;100881.70;263568;1095;114791;-71
2021/08/10 06:18:10;;;;;;;4.50;2.43;;;;;;;18.19;64.68;100878.94;263634;1095;114702;-70
2021/08/10 06:23:12;;;;;;;4.73;2.60;;;;;;;18.38;64.50;100873.98;263612;1095;114894;-70
2021/08/10 06:28:14;;;;;;;3.20;2.90;;;;;;;18.51;64.02;100879.43;263675;1095;115186;-69
2021/08/10 06:33:16;;;;;;;5.88;5.38;;;;;;;18.52;64.54;100875.73;263612;1096;114749;-69
2021/08/10 06:38:18;;;;;;;2.40;2.13;;;;;;;18.79;61.80;100877.62;263633;1095;114469;-69
2021/08/10 06:43:21;;;;;;;2.73;2.50;;;;;;;18.92;62.53;100870.70;263636;1096;114752;-69
2021/08/10 06:48:23;;;;;;;4.33;3.80;;;;;;;18.82;64.23;100866.52;263695;1095;114452;-69
2021/08/10 06:53:25;;;;;;;4.28;3.83;;;;;;;18.89;64.59;100876.47;263580;1095;114921;-66
2021/08/10 06:58:27;;;;;;;4.18;3.03;;;;;;;19.13;64.64;100873.31;263071;1095;114343;-69
2021/08/10 07:03:29;;;;;;;2.73;2.53;;;;;;;19.38;64.53;100873.64;263015;1095;114670;-68
2021/08/10 07:08:31;;;;;;;4.33;2.43;;;;;;;19.62;62.83;100864.31;263615;1096;114614;-69
2021/08/10 07:13:33;;;;;;;2.50;2.30;;;;;;;19.77;63.43;100864.95;263703;1096;114333;-70
2021/08/10 07:18:39;;;;;;;5.18;2.70;;;;;;;19.70;64.19;100869.50;263269;1095;114846;-69
2021/08/10 07:23:41;;;;;;;3.90;2.90;;;;;;;19.79;64.35;100857.55;263639;1095;114699;-68
2021/08/10 07:28:43;;;;;;;5.25;2.58;;;;;;;19.82;64.07;100857.15;263572;1095;114498;-70
2021/08/10 07:33:45;;;;;;;3.45;2.33;;;;;;;19.91;63.40;100855.10;263100;1095;114434;-69
2021/08/10 07:38:48;;;;;;;2.78;2.40;;;;;;;19.90;62.80;100855.31;263630;1096;114415;-69
2021/08/10 07:43:50;;;;;;;3.40;2.85;;;;;;;19.96;63.43;100852.63;263650;1096;114344;-71
2021/08/10 07:48:52;;;;;;;4.75;3.18;;;;;;;20.11;64.00;100854.31;263618;1096;114319;-69
2021/08/10 07:53:54;;;;;;;3.60;2.60;;;;;;;20.36;62.66;100862.58;263580;1096;114445;-69
2021/08/10 07:58:57;;;;;;;6.98;2.75;;;;;;;20.43;63.29;100868.78;263646;1095;114594;-68
2021/08/10 08:03:59;;;;;;;2.75;1.85;;;;;;;20.64;59.17;100865.94;263645;1095;114347;-69
2021/08/10 08:09:01;;;;;;;1.98;1.75;;;;;;;20.75;57.45;100851.03;263367;1096;114368;-69
2021/08/10 08:14:03;;;;;;;5.08;2.05;;;;;;;20.85;58.16;100855.99;263668;1095;115026;-71
2021/08/10 08:19:05;;;;;;;1.67;1.57;;;;;;;21.04;56.67;100849.75;263285;1096;114421;-69
2021/08/10 08:24:08;;;;;;;2.58;2.05;;;;;;;21.20;56.11;100854.66;263380;1095;114603;-69
2021/08/10 08:29:10;;;;;;;3.53;2.08;;;;;;;21.37;58.15;100835.39;263167;1096;114735;-69
2021/08/10 08:34:12;;;;;;;2.73;2.10;;;;;;;21.34;57.24;100854.64;263636;1096;114761;-69
2021/08/10 08:39:14;;;;;;;4.25;1.48;;;;;;;21.37;56.06;100851.53;263605;1095;114498;-69
2021/08/10 08:44:18;;;;;;;1.65;1.55;;;;;;;21.60;51.93;100853.71;263600;1095;114565;-69
2021/08/10 08:49:23;;;;;;;1.65;1.55;;;;;;;21.44;52.77;100857.71;263225;1095;114333;-73
2021/08/10 08:54:26;;;;;;;1.80;1.13;;;;;;;21.40;50.55;100843.05;263635;1096;114954;-73
2021/08/10 08:59:29;;;;;;;1.08;0.90;;;;;;;21.51;49.27;100839.69;263678;1095;114365;-70
2021/08/10 09:04:32;;;;;;;1.48;1.13;;;;;;;21.76;48.90;100842.44;263662;1096;114383;-72
2021/08/10 09:09:34;;;;;;;2.10;1.48;;;;;;;22.08;50.75;100828.98;263555;1095;114799;-74
2021/08/10 09:14:47;;;;;;;1.48;1.38;;;;;;;22.16;48.73;100826.09;263639;1095;114729;-70
2021/08/10 09:19:55;;;;;;;1.40;1.30;;;;;;;22.28;47.37;100823.52;263651;1096;114984;-70
2021/08/10 09:25:02;;;;;;;4.70;1.65;;;;;;;22.38;46.82;100811.17;263641;1095;114288;-69
2021/08/10 09:30:09;;;;;;;1.70;1.60;;;;;;;22.60;46.76;100811.61;263598;1096;114603;-68
2021/08/10 09:35:17;;;;;;;2.50;1.50;;;;;;;22.71;45.61;100815.45;263600;1095;114545;-68
2021/08/10 09:40:34;;;;;;;3.88;1.65;;;;;;;22.62;48.40;100801.42;263599;1096;114705;-70
2021/08/10 09:45:36;;;;;;;2.43;1.33;;;;;;;22.73;48.25;100795.30;263705;1096;114589;-70
2021/08/10 09:50:38;;;;;;;2.53;1.60;;;;;;;22.73;48.75;100795.30;263603;1096;114600;-68
2021/08/10 09:55:55;;;;;;;2.08;1.90;;;;;;;22.85;48.47;100786.47;263680;1096;114408;-69
2021/08/10 10:01:01;;;;;;;1.58;1.45;;;;;;;22.89;48.74;100782.28;263617;1096;114743;-70
2021/08/10 10:06:05;;;;;;;3.38;2.30;;;;;;;23.10;50.33;100779.17;263632;1095;114796;-71
2021/08/10 10:11:07;;;;;;;;;;;;;;;23.12;50.07;100768.15;263639;1095;114348;-70
2021/08/10 10:16:09;;;;;;;2.98;2.43;;;;;;;23.26;51.47;100771.52;263731;1096;101153;-69
2021/08/10 10:21:13;;;;;;;2.53;2.33;;;;;;;23.41;50.78;100770.06;263634;1096;114392;-69
2021/08/10 10:26:16;;;;;;;2.18;2.05;;;;;;;23.54;49.69;100763.64;263598;1095;114398;-69
2021/08/10 10:31:18;;;;;;;2.60;2.40;;;;;;;23.70;49.89;100756.80;263221;1096;114477;-69
2021/08/10 10:36:20;;;;;;;2.90;2.60;;;;;;;23.75;51.04;100758.80;263679;1096;114629;-68
2021/08/10 10:41:29;;;;;;;1.90;1.80;;;;;;;23.73;49.49;100755.53;263625;1096;114464;-69
2021/08/10 10:46:34;;;;;;;2.03;1.90;;;;;;;23.91;48.23;100747.33;263639;1096;114816;-68
2021/08/10 10:51:39;;;;;;;2.40;2.13;;;;;;;23.74;48.65;100747.19;263565;1095;114781;-69
2021/08/10 10:56:41;;;;;;;2.38;2.28;;;;;;;23.74;50.67;100747.19;263641;1096;114758;-69
2021/08/10 11:01:44;;;;;;;1.73;1.63;;;;;;;23.48;51.60;100742.97;263705;1094;114283;-67
2021/08/10 11:06:49;;;;;;;4.47;1.93;;;;;;;23.42;51.63;100733.11;263653;1095;114308;-68
2021/08/10 11:11:52;;;;;;;2.25;2.10;;;;;;;23.37;51.75;100723.02;263657;1096;114489;-70
2021/08/10 11:17:21;;;;;;;1.98;1.88;;;;;;;23.27;52.99;100724.61;263661;1095;115051;-70
2021/08/10 11:22:24;;;;;;;2.25;2.03;;;;;;;23.24;52.37;100715.09;263439;1095;114423;-70
2021/08/10 11:27:45;;;;;;;2.48;2.25;;;;;;;23.34;51.78;100717.25;263620;1095;114321;-70
2021/08/10 11:32:49;;;;;;;2.43;2.23;;;;;;;23.21;54.69;100713.70;263579;1096;114575;-69
2021/08/10 11:44:19;;;;;;;3.58;2.03;;;;;;;22.89;56.49;100696.03;263571;1096;117686;-69
2021/08/10 11:49:24;;;;;;;2.75;2.08;;;;;;;22.75;58.56;100701.59;263586;1095;114490;-68
2021/08/10 11:54:26;;;;;;;2.30;2.10;;;;;;;22.74;58.13;100702.66;263083;1095;114400;-69
2021/08/10 11:59:28;;;;;;;4.80;2.48;;;;;;;22.21;66.77;100703.22;263029;1097;114309;-70
2021/08/10 12:04:32;;;;;;;2.85;2.45;;;;;;;21.99;63.82;100696.55;263648;1095;114688;-69
2021/08/10 12:09:39;;;;;;;3.05;2.65;;;;;;;21.65;66.82;100687.95;263649;1096;114849;-67
2021/08/10 12:14:41;;;;;;;3.95;2.98;;;;;;;21.55;68.42;100674.15;263604;1095;114258;-69
2021/08/10 12:19:48;;;;;;;4.33;3.23;;;;;;;21.64;67.84;100672.83;263704;1095;114649;-69
2021/08/10 12:24:56;;;;;;;4.33;3.05;;;;;;;21.60;68.23;100687.76;263632;1095;114425;-67
2021/08/10 12:30:02;;;;;;;4.33;3.03;;;;;;;21.27;69.05;100678.03;263681;1096;114371;-69
2021/08/10 12:35:21;;;;;;;4.08;2.53;;;;;;;20.82;67.61;100653.05;263310;1096;114619;-69
2021/08/10 12:40:24;;;;;;;4.95;2.93;;;;;;;20.26;70.60;100659.01;263601;1096;114745;-66
2021/08/10 12:45:33;;;;;;;6.40;3.25;;;;;;;19.92;73.89;100646.67;263666;1096;114318;-69
2021/08/10 12:50:35;;;;;;;3.77;3.03;;;;;;;19.76;76.10;100664.84;263330;1095;114579;-67
2021/08/10 12:55:51;;;;;;;4.55;2.83;;;;;;;19.46;73.65;100672.41;263082;1095;114424;-69
2021/08/10 13:01:01;;;;;;;6.10;2.70;;;;;;;19.65;74.21;100668.13;263601;1096;114633;-70
2021/08/10 13:06:04;;;;;;;4.45;2.83;;;;;;;19.90;74.84;100638.84;263579;1096;114719;-70
2021/08/10 13:11:23;;;;;;;5.50;3.15;;;;;;;19.74;76.23;100656.19;263666;1095;114383;-67
2021/08/10 13:16:43;;;;;;;4.15;3.13;;;;;;;19.76;76.01;100642.56;263603;1096;114338;-69
2021/08/10 13:21:46;;;;;;;3.33;2.88;;;;;;;19.58;78.18;100645.81;263050;1095;114478;-69
2021/08/10 13:26:51;;;;;;;5.40;2.70;;;;;;;19.61;78.30;100623.14;263630;1096;114801;-68
2021/08/10 13:31:54;;;;;;;4.15;2.75;;;;;;;19.58;78.87;100619.01;263621;1095;114314;-69
2021/08/10 13:36:57;;;;;;;3.65;3.30;;;;;;;19.72;78.86;100626.06;263060;1097;114623;-70
2021/08/10 13:42:01;;;;;;;3.48;3.15;;;;;;;19.33;74.57;100645.60;263605;1096;114445;-68
2021/08/10 13:47:03;;;;;;;;;;;;;;;19.57;74.54;100628.91;263665;1095;114254;-69
2021/08/10 13:52:05;;;;;;;4.23;3.18;;;;;;;19.66;72.54;100629.58;263667;1096;101699;-70
2021/08/10 13:57:08;;;;;;;3.25;2.90;;;;;;;19.27;76.76;100617.78;262993;1095;114635;-68
2021/08/10 14:02:10;;;;;;;4.90;3.63;;;;;;;19.13;78.01;100616.09;263673;1096;114398;-70
2021/08/10 14:07:12;;;;;;;4.75;3.73;;;;;;;19.10;79.47;100627.22;263567;1096;114456;-69
2021/08/10 14:12:15;;;;;;;4.58;3.80;;;;;;;19.19;78.32;100642.09;263667;1095;114324;-69
2021/08/10 14:17:17;;;;;;;3.88;3.18;;;;;;;19.08;79.22;100672.16;263609;1096;114543;-71
2021/08/10 14:22:19;;;;;;;4.10;3.43;;;;;;;19.10;78.21;100675.44;263563;1096;114347;-69
2021/08/10 14:27:22;;;;;;;5.05;4.40;;;;;;;19.15;79.07;100672.97;263656;1096;114542;-69
2021/08/10 14:32:24;;;;;;;3.13;2.83;;;;;;;19.07;79.20;100670.48;263668;1095;114631;-70
2021/08/10 14:37:26;;;;;;;4.58;3.43;;;;;;;19.16;79.00;100658.57;263588;1095;114400;-69
2021/08/10 14:42:31;;;;;;;4.80;3.40;;;;;;;19.24;80.53;100607.47;263649;1095;114470;-69
2021/08/10 14:47:36;;;;;;;6.48;3.93;;;;;;;19.48;80.50;100602.53;263561;1095;114589;-70
2021/08/10 14:52:38;;;;;;;7.23;3.75;;;;;;;19.69;80.61;100570.15;263689;1095;114750;-69
2021/08/10 14:57:40;;;;;;;4.18;3.85;;;;;;;19.71;81.42;100584.19;263630;1095;114627;-71
2021/08/10 15:02:42;;;;;;;7.38;5.48;;;;;;;19.72;81.33;100577.78;263675;1095;114785;-71
2021/08/10 15:07:45;;;;;;;6.50;4.98;;;;;;;19.79;81.40;100583.97;263316;1096;115072;-69
2021/08/10 15:12:47;;;;;;;5.78;4.63;;;;;;;19.71;81.40;100584.19;263575;1096;114806;-69
2021/08/10 15:17:49;;;;;;;6.80;4.38;;;;;;;19.64;81.82;100566.45;263605;1096;114327;-70
2021/08/10 15:22:51;;;;;;;5.38;4.83;;;;;;;19.64;82.00;100586.05;263617;1096;114412;-68
2021/08/10 15:27:53;;;;;;;5.90;3.80;;;;;;;19.42;81.59;100608.70;263636;1096;114372;-68
2021/08/10 15:32:56;;;;;;;5.18;4.20;;;;;;;19.56;79.40;100572.83;263577;1096;114609;-70
2021/08/10 15:37:58;;;;;;;5.23;4.33;;;;;;;19.74;79.75;100570.38;263547;1096;114706;-70
2021/08/10 15:43:00;;;;;;;4.63;3.83;;;;;;;19.65;80.10;100570.78;263622;1095;114424;-69
2021/08/10 15:48:03;;;;;;;4.43;3.55;;;;;;;19.70;80.01;100560.24;263595;1096;114570;-69
2021/08/10 15:53:06;;;;;;;3.73;3.43;;;;;;;19.63;79.46;100562.95;263695;1095;114364;-68
2021/08/10 15:58:08;;;;;;;3.45;3.13;;;;;;;19.79;78.89;100551.78;263593;1096;114701;-68
2021/08/10 16:03:10;;;;;;;3.88;3.45;;;;;;;19.78;78.08;100527.88;263618;1096;114755;-67
2021/08/10 16:08:12;;;;;;;4.17;3.30;;;;;;;19.73;77.14;100520.42;263073;1095;114986;-68
2021/08/10 16:13:15;;;;;;;5.35;4.63;;;;;;;19.73;77.24;100501.66;263069;1095;114581;-69
2021/08/10 16:18:17;;;;;;;4.43;3.35;;;;;;;19.68;77.62;100480.02;263624;1095;116304;-68
2021/08/10 16:23:19;;;;;;;3.10;2.88;;;;;;;19.53;77.62;100471.36;263655;1096;114459;-69
2021/08/10 16:28:21;;;;;;;2.90;2.70;;;;;;;19.40;77.36;100474.90;263552;1096;114638;-68
2021/08/10 16:33:23;;;;;;;2.58;2.30;;;;;;;19.27;77.27;100474.90;263625;1095;114621;-68
2021/08/10 16:38:25;;;;;;;2.68;2.48;;;;;;;19.28;77.04;100477.39;263617;1095;114211;-68
2021/08/10 16:43:28;;;;;;;2.58;2.40;;;;;;;19.33;76.49;100476.76;263666;1095;114460;-68
2021/08/10 16:48:30;;;;;;;4.50;3.60;;;;;;;19.14;77.49;100467.70;263231;1095;114703;-68
2021/08/10 16:53:32;;;;;;;4.30;3.20;;;;;;;19.01;78.03;100452.47;263671;1093;114468;-69
2021/08/10 16:58:35;;;;;;;3.68;2.98;;;;;;;19.13;77.34;100455.34;263641;1095;114876;-68
2021/08/10 17:03:37;;;;;;;3.33;3.03;;;;;;;19.02;78.13;100442.58;263669;1096;114263;-68
2021/08/10 17:08:39;;;;;;;3.85;2.48;;;;;;;18.84;78.72;100441.36;263650;1094;114628;-70
2021/08/10 17:13:42;;;;;;;3.00;2.68;;;;;;;18.92;78.16;100442.16;263584;1095;114587;-69
2021/08/10 17:18:44;;;;;;;2.85;2.65;;;;;;;19.02;77.57;100438.04;263493;1095;115053;-69
2021/08/10 17:23:46;;;;;;;3.25;2.80;;;;;;;18.89;77.76;100445.27;263572;1095;114887;-69
2021/08/10 17:28:49;;;;;;;3.23;2.85;;;;;;;18.90;77.75;100444.23;263505;1096;114857;-69
2021/08/10 17:33:52;;;;;;;4.00;2.68;;;;;;;18.92;77.59;100432.30;263550;1096;115952;-69
2021/08/10 17:38:54;;;;;;;3.55;2.50;;;;;;;18.91;77.72;100432.48;263521;1095;115667;-67
2021/08/10 17:43:56;;;;;;;2.93;2.73;;;;;;;18.87;78.02;100432.06;263487;1096;114780;-69
2021/08/10 17:48:58;;;;;;;3.95;3.43;;;;;;;18.79;78.61;100421.56;263419;1095;114393;-69
2021/08/10 17:54:01;;;;;;;3.18;2.95;;;;;;;18.74;78.78;100435.58;263260;1095;114840;-69
2021/08/10 17:59:03;;;;;;;3.28;2.98;;;;;;;18.64;78.75;100507.39;263608;1095;114703;-68
2021/08/10 18:04:05;;;;;;;3.60;3.30;;;;;;;18.11;81.02;100558.08;263544;1096;114519;-66
2021/08/10 18:09:07;;;;;;;3.78;3.05;;;;;;;18.28;81.06;100511.21;263457;1095;115627;-69
2021/08/10 18:14:12;;;;;;;3.98;2.30;;;;;;;17.96;81.28;100581.44;263531;1096;114974;-69
2021/08/10 18:19:15;;;;;;;3.28;2.93;;;;;;;17.72;82.47;100562.13;263509;1095;114883;-70
2021/08/10 18:24:17;;;;;;;3.20;3.00;;;;;;;17.75;81.53;100590.34;263519;1096;114415;-68
2021/08/10 18:29:19;;;;;;;3.00;2.65;;;;;;;17.80;81.43;100578.05;263511;1096;114366;-69
2021/08/10 18:34:21;;;;;;;3.10;2.80;;;;;;;17.85;81.80;100548.05;263227;1095;114460;-69
2021/08/10 18:39:23;;;;;;;3.18;2.80;;;;;;;17.92;81.41;100521.36;263562;1096;115538;-70
2021/08/10 18:44:26;;;;;;;3.20;2.90;;;;;;;17.85;82.34;100492.72;263579;1096;114799;-68
2021/08/10 18:49:29;;;;;;;5.70;2.90;;;;;;;17.87;82.58;100476.50;263599;1095;115487;-70
2021/08/10 18:54:32;;;;;;;3.75;3.18;;;;;;;18.17;81.30;100447.58;263599;1095;114691;-69
2021/08/10 18:59:35;;;;;;;3.70;3.40;;;;;;;17.96;82.20;100471.80;263507;1096;115015;-69
2021/08/10 19:04:38;;;;;;;3.20;3.00;;;;;;;17.94;82.19;100487.20;263561;1096;114696;-70
2021/08/10 19:09:40;;;;;;;3.58;3.28;;;;;;;17.78;82.88;100507.89;263568;1095;114710;-68
2021/08/10 19:14:42;;;;;;;3.33;3.05;;;;;;;17.79;83.47;100517.59;263574;1095;114407;-69
2021/08/10 19:19:45;;;;;;;3.10;2.90;;;;;;;17.67;83.30;100532.50;263537;1095;114383;-69
2021/08/10 19:24:47;;;;;;;4.03;3.73;;;;;;;17.55;83.77;100520.67;263605;1095;115201;-72
2021/08/10 19:29:49;;;;;;;5.45;3.98;;;;;;;17.54;84.11;100524.38;263621;1095;114366;-70
2021/08/10 19:34:51;;;;;;;5.83;4.25;;;;;;;17.47;84.02;100534.19;263610;1095;114722;-69
2021/08/10 19:39:54;;;;;;;4.33;3.93;;;;;;;17.45;83.83;100525.55;263656;1096;114905;-69
2021/08/10 19:44:56;;;;;;;4.18;3.78;;;;;;;17.44;82.97;100513.23;263546;1095;114468;-68
2021/08/10 19:49:59;;;;;;;5.55;3.75;;;;;;;17.50;82.75;100507.91;263577;1096;114622;-67
2021/08/10 19:55:01;;;;;;;4.53;4.13;;;;;;;17.47;82.87;100518.98;263643;1096;114780;-69
2021/08/10 20:00:05;;;;;;;4.03;3.63;;;;;;;17.26;83.27;100511.03;263621;1096;114499;-70
2021/08/10 20:05:08;;;;;;;4.18;3.78;;;;;;;17.20;83.52;100512.61;263303;1095;114536;-68
2021/08/10 20:10:11;;;;;;;4.53;4.13;;;;;;;17.21;83.42;100511.61;263175;1096;114677;-69
2021/08/10 20:15:13;;;;;;;4.53;4.10;;;;;;;17.12;83.27;100504.73;263027;1095;114557;-69
2021/08/10 20:20:15;;;;;;;4.48;4.08;;;;;;;17.17;83.06;100502.33;263189;1095;114608;-69
2021/08/10 20:25:19;;;;;;;4.15;3.80;;;;;;;17.26;82.88;100490.48;263269;1095;114507;-68
2021/08/10 20:30:21;;;;;;;4.90;3.55;;;;;;;17.17;83.09;100494.33;262957;1096;114310;-70
2021/08/10 20:35:23;;;;;;;5.17;3.40;;;;;;;17.07;83.38;100485.80;263022;1096;114903;-69
2021/08/10 20:40:26;;;;;;;4.08;3.75;;;;;;;17.06;82.98;100484.16;262977;1095;114616;-68
2021/08/10 20:45:28;;;;;;;5.05;3.90;;;;;;;16.91;83.78;100481.56;263024;1095;114793;-68
2021/08/10 20:50:31;;;;;;;4.18;3.60;;;;;;;16.84;83.48;100488.69;263003;1095;114368;-68
2021/08/10 20:55:33;;;;;;;5.48;3.68;;;;;;;16.74;83.77;100486.35;263053;1096;114382;-70
2021/08/10 21:00:35;;;;;;;4.30;3.90;;;;;;;16.57;83.52;100490.23;263037;1095;114215;-67
2021/08/10 21:05:38;;;;;;;6.23;5.70;;;;;;;16.46;83.93;100496.07;263014;1095;114939;-69
2021/08/10 21:10:40;;;;;;;7.73;6.05;;;;;;;16.36;84.99;100485.72;263057;1095;114860;-68
2021/08/10 21:15:42;;;;;;;7.65;6.20;;;;;;;16.37;84.96;100485.52;262985;1095;114793;-68
2021/08/10 21:20:44;;;;;;;9.48;6.53;;;;;;;16.23;85.37;100494.41;263062;1095;114539;-69
2021/08/10 21:25:46;;;;;;;7.83;5.23;;;;;;;15.99;86.63;100492.86;262953;1096;114394;-69
2021/08/10 21:30:49;;;;;;;9.68;4.95;;;;;;;16.17;86.26;100501.30;263620;1095;114599;-67
2021/08/10 21:35:51;;;;;;;5.78;4.85;;;;;;;16.10;86.09;100497.72;263636;1095;114663;-68
2021/08/10 21:40:54;;;;;;;7.13;4.70;;;;;;;16.10;86.25;100494.23;263643;1096;114575;-68
2021/08/10 21:45:56;;;;;;;11.43;4.53;;;;;;;16.00;86.39;100504.38;263669;1095;114662;-68
2021/08/10 21:50:58;;;;;;;6.53;4.55;;;;;;;15.95;87.04;100506.75;263640;1096;114799;-70
2021/08/10 21:56:01;;;;;;;4.88;4.03;;;;;;;16.05;86.58;100512.63;263275;1095;114302;-68
2021/08/10 22:01:03;;;;;;;5.18;4.78;;;;;;;16.11;86.81;100515.39;263635;1096;114493;-69
2021/08/10 22:06:05;;;;;;;6.93;4.70;;;;;;;16.18;86.11;100518.94;263632;1095;114860;-67
2021/08/10 22:11:12;;;;;;;6.20;5.35;;;;;;;16.28;85.88;100517.84;263691;1096;114776;-68
2021/08/10 22:16:14;;;;;;;5.13;4.73;;;;;;;16.21;86.41;100517.75;263642;1095;114549;-70
2021/08/10 22:21:17;;;;;;;6.25;5.58;;;;;;;16.21;86.07;100516.93;263626;1096;114364;-69
2021/08/10 22:26:19;;;;;;;8.23;5.95;;;;;;;16.15;86.50;100518.52;263609;1096;114420;-70
2021/08/10 22:31:21;;;;;;;8.95;5.65;;;;;;;16.11;86.98;100514.53;263690;1096;114466;-68
2021/08/10 22:36:23;;;;;;;9.10;8.20;;;;;;;16.13;86.40;100521.34;263628;1096;114620;-70
2021/08/10 22:41:26;;;;;;;6.50;5.93;;;;;;;16.22;86.63;100518.58;263602;1095;115128;-68
2021/08/10 22:46:28;;;;;;;7.85;7.05;;;;;;;16.21;86.00;100520.41;263611;1095;114641;-68
2021/08/10 22:51:31;;;;;;;7.80;6.43;;;;;;;16.19;85.83;100527.80;263656;1096;114410;-68
2021/08/10 22:56:33;;;;;;;11.78;6.30;;;;;;;16.04;86.26;100521.65;263609;1096;114714;-69
2021/08/10 23:01:35;;;;;;;6.03;5.43;;;;;;;15.86;87.33;100522.02;263654;1096;115453;-68
2021/08/10 23:06:37;;;;;;;6.05;5.38;;;;;;;15.95;86.76;100517.41;263640;1095;115067;-69